Quinter, KS

6:54 AM CDT on July 30, 2014 (GMT -0500)
WaKeeney East Side (KKSWAKEE1) Elev 2486 ft | 39.03 °N, 99.87 °W | Change Station

Current weather conditions updated 2 minutes ago

Mostly Cloudy
Mostly Cloudy
65.1 °F
Feels Like 65.1 °F
N
0.0
Wind Variable Wind from North
Gusts 0.0 mph

Today is forecast to be Much Cooler than yesterday. Scattered thunderstorms possible.

Today
High -- | Low -- °F
--% Chance of Precip.
Yesterday
High -- | Low -- °F
Precip. -- in
6:40 AM 8:54 PM
Waxing Crescent, 11% visible
Pressure 30.07 in
Visibility 10.0 miles
Clouds Scattered Clouds 4300 ft
Mostly Cloudy 6500 ft
Dew Point 54 °F
Humidity 68%
Rainfall -999.00 in
Snow Depth Not available.
UV 0 out of 12
Pollen .80 out of 12
Air Quality Not available.
Flu Activity Not available.
METAR KHLC 301053Z AUTO 07013G18KT 10SM SCT043 BKN065 19/13 A3014 RMK AO2 SLP182 T01940133

More Conditions Fewer Conditions

Pressure 30.07 in
Visibility 10.0 miles
Clouds Scattered Clouds 4300 ft
Mostly Cloudy 6500 ft
Dew Point 54 °F
Humidity 68%
Rainfall -999.00 in
Snow Depth Not available.
UV 0 out of 12
Pollen .80 out of 12
Air Quality Not available.
Flu Activity Not available.
METAR KHLC 301053Z AUTO 07013G18KT 10SM SCT043 BKN065 19/13 A3014 RMK AO2 SLP182 T01940133

More Conditions Fewer Conditions

10-Day Weather Forecast

Almanac

Astronomy

Jul. 30, 2014 Rise Set
Actual Time 6:40 AM CDT 8:54 PM CDT
Civil Twilight 6:10 AM CDT 9:23 PM CDT
Nautical Twilight 5:33 AM CDT 10:00 PM CDT
Astronomical Twilight 4:53 AM CDT 10:40 PM CDT
Moon 10:11 AM CDT 10:40 PM CDT
Length of Visible Light 15h 13m
Length of Day
14h 13m
Tomorrow will be 1m 53s shorter.
Waxing Crescent, 11% of the Moon is Illuminated
Today
Waxing Crescent
Aug 3
First Quarter
Aug 10
Full
Aug 17
Last Quarter
Aug 25
New

Today's Extremes

State Highs State Lows

Community

WunderPhotos

Upload Photos

1,739,043 photos uploaded!

Nearby

Snow Depth

Station Depth Elevation
No new snow has been reported.

Earthquake Activity

City Distance Mag. Time & Date
No recent earthquake activity has been reported nearby.
Minimum magnitude displayed is 2.5.

Coastal Water Temperatures

Place Temperature
No Stations Reporting

Nearby Weather Stations

Station Location Temp. Dew Point Humidity Wind Precip. Elev Updated Type
MesoWest QUNTER , Park, KS 69 °F - - North  at  - 0.00 in / hr 2638 ft 5:05 AM CDT MADIS
WaKeeney East Side, WaKeeney, KS 65.1 °F 54 °F 68% North  at  0.0 mph 0.00 in / hr 2486 ft 6:52 AM CDT Normal
MesoWest GRINEL , Grinnell, KS 69 °F - - North  at  - 0.00 in / hr 2879 ft 3:35 AM CDT MADIS

Show More Stations Show Fewer Stations